createdAt,value
2023-02-20T00:00:00.465Z,5.9
2023-02-20T00:05:00.466Z,6
2023-02-20T00:10:00.533Z,5.9
2023-02-20T00:15:00.559Z,5.9
2023-02-20T00:20:00.530Z,5.9
2023-02-20T00:25:00.415Z,6
2023-02-20T00:30:00.530Z,6
2023-02-20T00:35:00.495Z,6
2023-02-20T00:40:00.450Z,6
2023-02-20T00:45:00.420Z,5.9
2023-02-20T00:50:00.386Z,6
2023-02-20T00:55:00.465Z,6
2023-02-20T01:00:00.473Z,5.9
2023-02-20T01:05:00.483Z,6
2023-02-20T01:10:00.462Z,6
2023-02-20T01:15:00.533Z,6
2023-02-20T01:20:00.617Z,6
2023-02-20T01:25:00.477Z,6
2023-02-20T01:30:00.510Z,6
2023-02-20T01:35:00.426Z,6
2023-02-20T01:40:00.512Z,6
2023-02-20T01:45:00.430Z,6
2023-02-20T01:50:00.503Z,6
2023-02-20T01:55:00.503Z,6
2023-02-20T02:00:00.477Z,6
2023-02-20T02:05:00.480Z,6
2023-02-20T02:10:00.513Z,6
2023-02-20T02:15:00.564Z,6
2023-02-20T02:20:00.427Z,6
2023-02-20T02:25:00.448Z,5.9
2023-02-20T02:30:00.529Z,6
2023-02-20T02:35:00.510Z,6
2023-02-20T02:40:00.551Z,6
2023-02-20T02:45:00.516Z,5.9
2023-02-20T02:50:00.514Z,5.9
2023-02-20T02:55:00.533Z,5.9
2023-02-20T03:00:00.502Z,5.9
2023-02-20T03:05:00.474Z,5.8
2023-02-20T03:10:00.486Z,5.8
2023-02-20T03:15:00.475Z,5.8
2023-02-20T03:20:00.483Z,5.8
2023-02-20T03:25:00.489Z,5.8
2023-02-20T03:30:00.591Z,5.8
2023-02-20T03:35:00.486Z,5.7
2023-02-20T03:40:00.472Z,5.6
2023-02-20T03:45:00.489Z,5.5
2023-02-20T03:50:00.422Z,5.5
2023-02-20T03:55:00.504Z,5.4
2023-02-20T04:00:00.638Z,5.3
2023-02-20T04:05:00.496Z,5.2
2023-02-20T04:10:00.406Z,5.2
2023-02-20T04:15:00.454Z,5.2
2023-02-20T04:20:00.496Z,5.1
2023-02-20T04:25:00.470Z,5.1
2023-02-20T04:30:00.492Z,5
2023-02-20T04:35:00.492Z,5
2023-02-20T04:40:00.493Z,5
2023-02-20T04:45:00.404Z,4.9
2023-02-20T04:50:00.621Z,4.9
2023-02-20T04:55:00.415Z,4.8
2023-02-20T05:00:00.502Z,4.8
2023-02-20T05:05:00.534Z,4.8
2023-02-20T05:10:00.460Z,4.7
2023-02-20T05:15:00.499Z,4.7
2023-02-20T05:20:00.439Z,4.6
2023-02-20T05:25:00.473Z,4.7
2023-02-20T05:30:00.533Z,4.7
2023-02-20T05:35:00.454Z,4.7
2023-02-20T05:40:00.445Z,4.7
2023-02-20T05:45:00.590Z,4.6
2023-02-20T05:50:00.684Z,4.6
2023-02-20T05:55:00.482Z,4.6
2023-02-20T06:00:00.529Z,4.6
2023-02-20T06:05:00.579Z,4.5
2023-02-20T06:10:00.481Z,4.5
2023-02-20T06:15:00.552Z,4.5
2023-02-20T06:20:00.525Z,4.5
2023-02-20T06:25:00.587Z,4.5
2023-02-20T06:30:00.473Z,4.5
2023-02-20T06:35:00.546Z,4.5
2023-02-20T06:40:00.642Z,4.5
2023-02-20T06:45:00.620Z,4.5
2023-02-20T06:50:00.539Z,4.5
2023-02-20T06:55:00.474Z,4.5
2023-02-20T07:00:00.416Z,4.5
2023-02-20T07:05:00.464Z,4.5
2023-02-20T07:10:00.404Z,4.6
2023-02-20T07:15:00.417Z,4.6
2023-02-20T07:20:00.445Z,4.7
2023-02-20T07:25:00.510Z,4.9
2023-02-20T07:30:00.583Z,4.9
2023-02-20T07:35:04.595Z,4.9
2023-02-20T07:40:00.502Z,4.9
2023-02-20T07:45:00.495Z,5
2023-02-20T07:50:00.559Z,5.1
2023-02-20T07:55:00.473Z,5.3
2023-02-20T08:00:00.476Z,5.5
2023-02-20T08:05:00.642Z,5.8
2023-02-20T08:10:00.569Z,6.3
2023-02-20T08:20:00.474Z,6.8
2023-02-20T08:30:00.598Z,6.9
2023-02-20T08:35:00.490Z,6.7
2023-02-20T08:40:00.413Z,6.6
2023-02-20T08:45:00.444Z,6.8
2023-02-20T08:50:00.487Z,6.8
2023-02-20T09:00:00.483Z,6.8
2023-02-20T09:10:00.481Z,6.6
2023-02-20T09:15:00.490Z,6.7
2023-02-20T09:20:00.645Z,6.6
2023-02-20T09:25:00.465Z,6.5
2023-02-20T09:30:00.508Z,6.5
2023-02-20T09:35:00.513Z,6.6
2023-02-20T09:40:00.481Z,6.5
2023-02-20T09:45:00.476Z,6.5
2023-02-20T09:50:00.570Z,6.6
2023-02-20T09:55:00.475Z,6.5
2023-02-20T10:00:03.690Z,6.4
2023-02-20T10:05:01.809Z,6.6
2023-02-20T10:10:00.483Z,6.6
2023-02-20T10:15:00.574Z,6.7
2023-02-20T10:20:00.439Z,6.6
2023-02-20T10:25:00.571Z,6.5
2023-02-20T10:30:00.515Z,6.6
2023-02-20T10:35:00.523Z,6.8
2023-02-20T10:40:00.424Z,6.8
2023-02-20T10:45:00.424Z,6.8
2023-02-20T10:55:00.555Z,6.7
2023-02-20T11:00:00.527Z,6.7
2023-02-20T11:05:00.447Z,6.8
2023-02-20T11:10:00.448Z,6.8
2023-02-20T11:15:00.477Z,6.7
2023-02-20T11:20:00.483Z,6.7
2023-02-20T11:25:00.431Z,6.8
2023-02-20T11:30:00.428Z,6.9
2023-02-20T11:35:00.480Z,6.7
2023-02-20T11:50:10.192Z,6.8
2023-02-20T12:00:00.443Z,7
2023-02-20T12:05:00.455Z,7
2023-02-20T12:10:00.457Z,7
2023-02-20T12:20:00.449Z,6.9
2023-02-20T12:25:00.498Z,6.8
2023-02-20T12:30:00.495Z,7
2023-02-20T12:35:00.379Z,6.9
2023-02-20T12:40:00.494Z,6.9
2023-02-20T12:45:00.450Z,6.8
2023-02-20T12:50:00.459Z,6.8
2023-02-20T12:55:00.462Z,7
2023-02-20T13:00:00.449Z,6.8
2023-02-20T13:05:00.431Z,7
2023-02-20T13:10:00.488Z,6.9
2023-02-20T13:15:00.413Z,6.8
2023-02-20T13:20:00.486Z,6.8
2023-02-20T13:25:00.430Z,7
2023-02-20T13:30:00.461Z,7
2023-02-20T13:35:00.478Z,7
2023-02-20T13:40:00.493Z,7.1
2023-02-20T13:45:00.434Z,6.9
2023-02-20T13:55:00.400Z,6.9
2023-02-20T14:00:00.422Z,7
2023-02-20T14:05:00.587Z,7.1
2023-02-20T14:10:00.411Z,7
2023-02-20T14:15:00.436Z,7
2023-02-20T14:25:00.528Z,7.1
2023-02-20T14:30:00.510Z,7.1
2023-02-20T14:35:00.530Z,7
2023-02-20T14:40:00.454Z,7.1
2023-02-20T14:50:00.425Z,6.9
2023-02-20T14:55:00.441Z,6.7
2023-02-20T15:00:00.500Z,6.6
2023-02-20T15:05:00.474Z,6.8
2023-02-20T15:10:00.460Z,6.7
2023-02-20T15:15:00.433Z,6.8
2023-02-20T15:20:00.425Z,6.8
2023-02-20T15:25:00.539Z,6.7
2023-02-20T15:30:00.470Z,6.7
2023-02-20T15:35:00.402Z,6.6
2023-02-20T15:40:00.416Z,6.6
2023-02-20T15:45:00.407Z,6.9
2023-02-20T15:50:00.397Z,6.4
2023-02-20T15:55:00.449Z,6.4
2023-02-20T16:00:00.447Z,6.5
2023-02-20T16:05:00.425Z,6.5
2023-02-20T16:10:00.452Z,6.6
2023-02-20T16:15:00.442Z,6.4
2023-02-20T16:20:00.438Z,6.5
2023-02-20T16:25:00.396Z,6.4
2023-02-20T16:30:00.454Z,6.4
2023-02-20T16:35:00.445Z,6.3
2023-02-20T16:40:00.503Z,6.2
2023-02-20T16:45:00.456Z,6.2
2023-02-20T16:50:00.433Z,6.1
2023-02-20T16:55:00.416Z,6.1
2023-02-20T17:00:00.457Z,6
2023-02-20T17:05:00.481Z,6
2023-02-20T17:10:00.459Z,6
2023-02-20T17:15:00.519Z,6
2023-02-20T17:25:00.380Z,6
2023-02-20T17:30:00.422Z,5.9
2023-02-20T17:35:00.415Z,5.8
2023-02-20T17:40:00.447Z,5.9
2023-02-20T17:50:00.423Z,5.8
2023-02-20T17:55:34.111Z,5.7
2023-02-20T18:01:01.840Z,5.8
2023-02-20T18:05:00.977Z,5.7
2023-02-20T18:10:00.703Z,5.7
2023-02-20T18:15:00.639Z,5.7
2023-02-20T18:20:00.670Z,5.6
2023-02-20T18:25:00.682Z,5.5
2023-02-20T18:30:00.652Z,5.5
2023-02-20T18:35:00.653Z,5.5
2023-02-20T18:40:00.964Z,5.4
2023-02-20T18:45:00.994Z,5.4
2023-02-20T18:50:01.028Z,5.4
2023-02-20T18:55:01.106Z,5.4
2023-02-20T19:00:01.017Z,5.3
2023-02-20T19:05:00.983Z,5.4
2023-02-20T19:10:01.051Z,5.3
2023-02-20T19:15:01.014Z,5.3
2023-02-20T19:20:01.016Z,5.3
2023-02-20T19:25:01.027Z,5.3
2023-02-20T19:30:00.936Z,5.3
2023-02-20T19:35:00.999Z,5.2
2023-02-20T19:40:01.091Z,5.3
2023-02-20T19:45:00.963Z,5.3
2023-02-20T19:50:00.997Z,5.2
2023-02-20T19:55:00.930Z,5.2
2023-02-20T20:00:01.036Z,5.2
2023-02-20T20:05:00.979Z,5.1
2023-02-20T20:10:00.912Z,5.1
2023-02-20T20:15:00.957Z,5.1
2023-02-20T20:20:01.284Z,5.1
2023-02-20T20:25:01.016Z,5.1
2023-02-20T20:30:00.985Z,5.1
2023-02-20T20:35:00.985Z,5.1
2023-02-20T20:40:00.979Z,5
2023-02-20T20:45:00.977Z,5
2023-02-20T20:50:00.962Z,5
2023-02-20T20:55:01.046Z,4.9
2023-02-20T21:00:00.995Z,5
2023-02-20T21:05:10.433Z,4.9
2023-02-20T21:10:01.000Z,4.9
2023-02-20T21:15:01.140Z,4.9
2023-02-20T21:20:01.009Z,4.9
2023-02-20T21:25:00.983Z,4.8
2023-02-20T21:30:00.976Z,4.9
2023-02-20T21:35:01.119Z,4.8
2023-02-20T21:40:01.041Z,4.8
2023-02-20T21:45:00.994Z,4.8
2023-02-20T21:50:01.080Z,4.8
2023-02-20T21:55:00.941Z,4.8
2023-02-20T22:00:01.123Z,4.7
2023-02-20T22:05:01.032Z,4.8
2023-02-20T22:10:01.036Z,4.8
2023-02-20T22:15:01.171Z,4.7
2023-02-20T22:20:00.998Z,4.7
2023-02-20T22:25:00.981Z,4.8
2023-02-20T22:30:01.082Z,4.7
2023-02-20T22:35:10.721Z,4.7
2023-02-20T22:40:00.935Z,4.7
2023-02-20T22:45:00.984Z,4.6
2023-02-20T22:50:01.089Z,4.6
2023-02-20T22:55:05.356Z,4.6
2023-02-20T23:00:01.512Z,4.6
2023-02-20T23:05:00.974Z,4.6
2023-02-20T23:10:00.979Z,4.5
2023-02-20T23:15:01.015Z,4.5
2023-02-20T23:20:01.033Z,4.5
2023-02-20T23:25:00.977Z,4.5
2023-02-20T23:30:01.076Z,4.5
2023-02-20T23:35:00.893Z,4.5
2023-02-20T23:40:01.023Z,4.5
2023-02-20T23:45:01.066Z,4.5
2023-02-20T23:50:01.100Z,4.4
2023-02-20T23:55:01.037Z,4.4
